Startpagina
METAR-TAF:

METAR-TAF

Vliegvelden :

Albert, Frankrijk

breedte: 49-58-21N, lengte: 002-41-29E, hoogte: 111 m

Actueel weer

Dit bericht is 24 minuten geleden gemaakt, om 22:00 UTC
Wind 6 kt uit het noorden
Temperatuur 12°C
Vochtigheid 88%
Druk 1024 hPa
Zicht 10 km of meer
geen wolken onder 1500 m en geen cumulonimbus

METAR: LFAQ 242200Z AUTO 35006KT CAVOK 12/10 Q1024

Tijdstip: 00:24 (22:24 UTC)

Verwachting

Dit bericht is 8 uur en het 24 minuten geleden gemaakt, om 14:00 UTC
Verwachting geldig van 24 om 15 UTC tot 24 om 24 UTC
Wind 10 kt uit het noorden
Zicht 10 km of meer
geen wolken onder 1500 m en geen cumulonimbus

TAF: LFAQ 241400Z 2415/2424 01010KT CAVOK

Waarnemingen en weersverwachtingen van meer dan 4000 vliegvelden (METAR en TAF).

De beschikbare stations zijn de gele en rode punten op de kaart.

Ga met uw muis naar het station om de naam te zien.

Klik dan om waarnemingen en weersverwachtingen te zien.

kaart wijzigen: klik op de groene knoppen met een zwart kruis om in te zoomen, op de groene knop met een streepje om uit te zoomen of op de groene pijlen voor aangrenzende kaarten.


METAR-TAF: